Time;durP1;ratioP1;P1;durP2;ratioP2;P2;SDS_P1;SDS_P2;PMS_P1;PMS_P2;Temp;Humidity;BMP_temperature;BMP_pressure;BME280_temperature;BME280_humidity;BME280_pressure;Samples;Min_cycle;Max_cycle;Signal;HPM_P1;HPM_P2
2022/06/28 00:01:20;;;;;;;3.40;2.73;;;;;;;;;;5231860;28;20488;-72
2022/06/28 00:03:52;;;;;;;4.87;3.03;;;;;;;;;;5243004;28;20120;-72
2022/06/28 00:06:23;;;;;;;4.70;3.40;;;;;;;;;;5211935;28;20022;-70
2022/06/28 00:08:54;;;;;;;5.70;2.80;;;;;;;;;;5240606;28;20017;-74
2022/06/28 00:11:25;;;;;;;3.73;2.27;;;;;;;;;;5232567;28;20061;-71
2022/06/28 00:13:56;;;;;;;9.40;3.10;;;;;;;;;;5247726;28;20018;-71
2022/06/28 00:16:28;;;;;;;5.43;3.63;;;;;;;;;;5246617;28;20025;-71
2022/06/28 00:18:59;;;;;;;5.30;3.53;;;;;;;;;;5242877;28;20103;-71
2022/06/28 00:21:30;;;;;;;5.53;3.70;;;;;;;;;;5231962;28;20024;-72
2022/06/28 00:24:01;;;;;;;6.97;3.27;;;;;;;;;;5230687;28;20032;-71
2022/06/28 00:26:33;;;;;;;5.83;3.63;;;;;;;;;;5232341;28;20025;-71
2022/06/28 00:29:04;;;;;;;5.37;3.40;;;;;;;;;;5222661;28;20030;-70
2022/06/28 00:31:35;;;;;;;3.83;3.13;;;;;;;;;;5226259;28;20025;-71
2022/06/28 00:34:06;;;;;;;9.87;3.40;;;;;;;;;;5246078;28;20556;-71
2022/06/28 00:36:38;;;;;;;5.30;3.70;;;;;;;;;;5247151;28;20064;-71
2022/06/28 00:39:09;;;;;;;7.33;3.47;;;;;;;;;;5231295;28;20021;-71
2022/06/28 00:41:40;;;;;;;6.07;3.67;;;;;;;;;;5246855;28;20033;-71
2022/06/28 00:44:11;;;;;;;6.67;4.00;;;;;;;;;;5231183;28;20025;-71
2022/06/28 00:46:43;;;;;;;6.27;3.10;;;;;;;;;;5230029;28;20026;-71
2022/06/28 00:49:15;;;;;;;5.40;3.13;;;;;;;;;;5226834;28;20036;-71
2022/06/28 00:51:46;;;;;;;4.67;3.27;;;;;;;;;;5244613;28;20052;-70
2022/06/28 00:54:17;;;;;;;4.60;3.50;;;;;;;;;;5210791;28;20030;-71
2022/06/28 00:56:48;;;;;;;8.93;3.27;;;;;;;;;;5212275;28;20479;-71
2022/06/28 00:59:22;;;;;;;4.27;3.50;;;;;;;;;;5225333;28;20017;-70
2022/06/28 01:01:55;;;;;;;5.53;3.53;;;;;;;;;;5212948;28;20103;-71
2022/06/28 01:04:27;;;;;;;6.80;3.70;;;;;;;;;;5230651;22;20046;-71
2022/06/28 01:06:58;;;;;;;8.07;3.70;;;;;;;;;;5223165;28;20821;-71
2022/06/28 01:09:29;;;;;;;4.83;3.30;;;;;;;;;;5210374;28;20026;-71
2022/06/28 01:12:00;;;;;;;5.20;3.70;;;;;;;;;;5214153;28;20053;-72
2022/06/28 01:14:32;;;;;;;6.40;3.40;;;;;;;;;;5229443;28;20095;-71
2022/06/28 01:17:03;;;;;;;9.27;3.27;;;;;;;;;;5220114;28;20038;-70
2022/06/28 01:19:34;;;;;;;5.40;3.70;;;;;;;;;;5193201;28;20331;-71
2022/06/28 01:22:06;;;;;;;4.67;3.27;;;;;;;;;;5218753;28;20048;-72
2022/06/28 01:24:38;;;;;;;8.80;3.90;;;;;;;;;;5234614;28;20036;-72
2022/06/28 01:27:09;;;;;;;5.00;3.50;;;;;;;;;;5218955;28;20030;-72
2022/06/28 01:29:40;;;;;;;5.93;3.27;;;;;;;;;;5210039;28;20021;-72
2022/06/28 01:32:13;;;;;;;4.33;3.17;;;;;;;;;;5209119;28;20036;-71
2022/06/28 01:34:44;;;;;;;5.27;3.80;;;;;;;;;;5210629;28;20025;-72
2022/06/28 01:37:15;;;;;;;4.60;3.20;;;;;;;;;;5208760;28;20062;-71
2022/06/28 01:39:46;;;;;;;8.00;4.03;;;;;;;;;;5211544;28;20030;-70
2022/06/28 01:42:18;;;;;;;5.30;3.67;;;;;;;;;;5211087;28;20030;-70
2022/06/28 01:44:49;;;;;;;8.57;4.13;;;;;;;;;;5230803;28;20010;-71
2022/06/28 01:47:21;;;;;;;6.73;3.97;;;;;;;;;;5227599;28;20029;-71
2022/06/28 01:49:53;;;;;;;7.13;4.27;;;;;;;;;;5230942;28;20479;-71
2022/06/28 01:52:24;;;;;;;6.67;3.90;;;;;;;;;;5225075;28;20121;-71
2022/06/28 01:54:55;;;;;;;6.63;3.77;;;;;;;;;;5230356;28;20052;-71
2022/06/28 01:57:27;;;;;;;4.63;3.47;;;;;;;;;;5230125;28;20052;-71
2022/06/28 01:59:58;;;;;;;8.17;4.17;;;;;;;;;;5230080;28;20013;-72
2022/06/28 02:02:29;;;;;;;7.07;3.80;;;;;;;;;;5225526;28;20040;-71
2022/06/28 02:05:00;;;;;;;5.70;4.00;;;;;;;;;;5209668;28;20045;-71
2022/06/28 02:07:32;;;;;;;4.93;4.13;;;;;;;;;;5209898;28;20540;-71
2022/06/28 02:10:03;;;;;;;6.30;3.03;;;;;;;;;;5209860;28;20014;-72
2022/06/28 02:12:34;;;;;;;4.93;3.80;;;;;;;;;;5212474;28;20021;-72
2022/06/28 02:15:05;;;;;;;4.33;3.13;;;;;;;;;;5231189;28;20131;-72
2022/06/28 02:17:37;;;;;;;7.07;3.53;;;;;;;;;;5228678;28;20057;-71
2022/06/28 02:20:08;;;;;;;5.00;3.67;;;;;;;;;;5230052;28;20021;-72
2022/06/28 02:22:39;;;;;;;5.07;4.10;;;;;;;;;;5224520;28;20026;-72
2022/06/28 02:25:11;;;;;;;6.40;3.57;;;;;;;;;;5205057;28;20018;-72
2022/06/28 02:27:43;;;;;;;8.00;3.40;;;;;;;;;;5236288;28;20693;-71
2022/06/28 02:30:14;;;;;;;5.73;3.43;;;;;;;;;;5226073;28;20021;-71
2022/06/28 02:32:45;;;;;;;7.50;4.60;;;;;;;;;;5227718;28;20163;-71
2022/06/28 02:40:56;;;;;;;8.83;4.13;;;;;;;;;;5229097;28;20074;-71
2022/06/28 02:43:27;;;;;;;8.50;3.97;;;;;;;;;;5228028;28;20060;-71
2022/06/28 02:45:58;;;;;;;5.97;3.80;;;;;;;;;;5219878;28;20024;-71
2022/06/28 02:48:30;;;;;;;9.07;3.87;;;;;;;;;;5207971;28;20125;-70
2022/06/28 02:51:01;;;;;;;6.57;3.40;;;;;;;;;;5207826;28;20018;-70
2022/06/28 02:53:32;;;;;;;6.57;3.10;;;;;;;;;;5224832;28;20760;-70
2022/06/28 02:56:03;;;;;;;5.88;3.58;;;;;;;;;;5227970;28;20044;-70
2022/06/28 02:58:34;;;;;;;5.97;3.50;;;;;;;;;;5229262;28;20033;-71
2022/06/28 03:01:06;;;;;;;8.97;3.57;;;;;;;;;;5228872;28;20022;-71
2022/06/28 03:03:37;;;;;;;7.10;3.17;;;;;;;;;;5227811;28;20506;-70
2022/06/28 03:06:08;;;;;;;6.83;3.20;;;;;;;;;;5219155;28;20022;-70
2022/06/28 03:08:39;;;;;;;7.73;3.63;;;;;;;;;;5208882;28;20026;-71
2022/06/28 03:11:11;;;;;;;7.07;3.73;;;;;;;;;;5208991;28;20181;-70
2022/06/28 03:13:42;;;;;;;5.07;3.30;;;;;;;;;;5207420;28;20387;-71
2022/06/28 03:16:13;;;;;;;5.63;3.87;;;;;;;;;;5217360;28;20029;-70
2022/06/28 03:18:44;;;;;;;7.60;3.53;;;;;;;;;;5229107;28;20083;-71
2022/06/28 03:21:16;;;;;;;9.93;3.35;;;;;;;;;;5227891;28;20092;-72
2022/06/28 03:23:47;;;;;;;7.50;2.87;;;;;;;;;;5228415;28;20029;-71
2022/06/28 03:26:18;;;;;;;7.43;3.00;;;;;;;;;;5219556;28;20084;-71
2022/06/28 03:28:49;;;;;;;8.77;3.53;;;;;;;;;;5212827;28;20033;-71
2022/06/28 03:31:20;;;;;;;10.40;3.20;;;;;;;;;;5211748;28;20030;-70
2022/06/28 03:33:51;;;;;;;6.40;2.93;;;;;;;;;;5211750;28;20062;-71
2022/06/28 03:36:23;;;;;;;4.23;3.03;;;;;;;;;;5213199;28;20676;-72
2022/06/28 03:38:54;;;;;;;7.60;3.30;;;;;;;;;;5212396;28;20029;-73
2022/06/28 03:41:25;;;;;;;5.47;3.10;;;;;;;;;;5213473;28;20022;-71
2022/06/28 03:43:56;;;;;;;6.73;3.07;;;;;;;;;;5211036;28;20476;-71
2022/06/28 03:46:27;;;;;;;8.37;4.00;;;;;;;;;;5211576;28;20380;-71
2022/06/28 03:48:59;;;;;;;8.00;3.22;;;;;;;;;;5227858;28;20120;-71
2022/06/28 03:51:30;;;;;;;8.20;3.23;;;;;;;;;;5219942;28;20048;-70
2022/06/28 03:54:01;;;;;;;6.73;3.03;;;;;;;;;;5215580;28;20097;-71
2022/06/28 03:56:32;;;;;;;6.53;3.40;;;;;;;;;;5213765;28;20026;-71
2022/06/28 03:59:04;;;;;;;6.63;3.63;;;;;;;;;;5212869;28;20026;-71
2022/06/28 04:01:35;;;;;;;8.33;3.27;;;;;;;;;;5211335;28;20029;-71
2022/06/28 04:04:06;;;;;;;8.43;3.40;;;;;;;;;;5212357;28;20645;-70
2022/06/28 04:06:37;;;;;;;10.05;3.42;;;;;;;;;;5222323;28;20032;-71
2022/06/28 04:09:08;;;;;;;11.33;3.00;;;;;;;;;;5231162;28;20084;-71
2022/06/28 04:11:39;;;;;;;6.13;3.10;;;;;;;;;;5233007;28;20032;-71
2022/06/28 04:14:13;;;;;;;4.97;2.70;;;;;;;;;;5232381;28;20522;-71
2022/06/28 04:16:44;;;;;;;9.27;2.97;;;;;;;;;;5220931;28;20140;-72
2022/06/28 04:19:16;;;;;;;6.47;2.87;;;;;;;;;;5211589;28;20037;-71
2022/06/28 04:21:47;;;;;;;5.97;2.73;;;;;;;;;;5210740;28;20037;-70
2022/06/28 04:24:18;;;;;;;9.07;2.60;;;;;;;;;;5225138;28;20018;-71
2022/06/28 04:26:50;;;;;;;10.57;3.13;;;;;;;;;;5220716;28;20045;-71
2022/06/28 04:29:21;;;;;;;7.10;3.47;;;;;;;;;;5211695;28;20068;-72
2022/06/28 04:31:52;;;;;;;7.53;2.77;;;;;;;;;;5214129;28;20044;-71
2022/06/28 04:34:23;;;;;;;7.63;2.70;;;;;;;;;;5216344;28;20469;-71
2022/06/28 04:36:54;;;;;;;11.27;3.40;;;;;;;;;;5210456;28;20034;-73
2022/06/28 04:39:25;;;;;;;9.70;3.03;;;;;;;;;;5212194;28;20061;-72
2022/06/28 04:41:57;;;;;;;8.17;2.77;;;;;;;;;;5210256;28;20498;-72
2022/06/28 04:44:28;;;;;;;8.10;2.63;;;;;;;;;;5211453;28;20014;-72
2022/06/28 04:47:00;;;;;;;8.23;3.03;;;;;;;;;;5210956;28;20017;-72
2022/06/28 04:49:31;;;;;;;8.40;2.33;;;;;;;;;;5217944;28;20053;-72
2022/06/28 04:52:03;;;;;;;7.23;2.57;;;;;;;;;;5214763;28;20502;-71
2022/06/28 04:54:34;;;;;;;5.87;2.87;;;;;;;;;;5232336;28;20014;-72
2022/06/28 04:57:05;;;;;;;8.33;3.40;;;;;;;;;;5232123;28;20029;-72
2022/06/28 04:59:37;;;;;;;6.10;2.83;;;;;;;;;;5220242;28;20022;-72
2022/06/28 05:02:08;;;;;;;6.90;2.92;;;;;;;;;;5210384;28;20460;-71
2022/06/28 05:04:39;;;;;;;12.20;2.93;;;;;;;;;;5209419;28;20500;-70
2022/06/28 05:07:10;;;;;;;8.50;3.45;;;;;;;;;;5212427;28;20038;-71
2022/06/28 05:09:41;;;;;;;10.33;3.63;;;;;;;;;;5209461;28;20021;-71
2022/06/28 05:12:13;;;;;;;10.90;3.07;;;;;;;;;;5216543;28;20021;-71
2022/06/28 05:14:44;;;;;;;8.93;2.77;;;;;;;;;;5230124;28;20013;-70
2022/06/28 05:17:15;;;;;;;10.47;3.20;;;;;;;;;;5217527;28;20037;-70
2022/06/28 05:19:46;;;;;;;8.73;2.80;;;;;;;;;;5210450;28;20018;-70
2022/06/28 05:22:17;;;;;;;5.67;3.13;;;;;;;;;;5215978;28;20022;-71
2022/06/28 05:24:49;;;;;;;7.50;3.20;;;;;;;;;;5227323;28;20037;-70
2022/06/28 05:27:20;;;;;;;7.30;3.37;;;;;;;;;;5217184;28;20025;-70
2022/06/28 05:29:51;;;;;;;13.77;3.10;;;;;;;;;;5228606;28;20033;-72
2022/06/28 05:32:22;;;;;;;7.82;2.15;;;;;;;;;;5225120;28;20025;-70
2022/06/28 05:34:53;;;;;;;11.57;2.57;;;;;;;;;;5230090;28;20075;-71
2022/06/28 05:37:25;;;;;;;7.77;3.27;;;;;;;;;;5221570;28;20091;-72
2022/06/28 05:39:56;;;;;;;9.57;2.77;;;;;;;;;;5209711;28;20076;-71
2022/06/28 05:42:27;;;;;;;7.47;2.90;;;;;;;;;;5219636;28;20499;-71
2022/06/28 05:44:58;;;;;;;11.37;3.00;;;;;;;;;;5226673;28;20435;-71
2022/06/28 05:47:30;;;;;;;12.18;2.75;;;;;;;;;;5213507;28;20057;-71
2022/06/28 05:50:02;;;;;;;12.43;3.17;;;;;;;;;;5210357;28;20033;-71
2022/06/28 05:52:33;;;;;;;8.10;2.43;;;;;;;;;;5214000;28;20029;-71
2022/06/28 05:55:04;;;;;;;9.02;2.72;;;;;;;;;;5225987;28;20083;-71
2022/06/28 05:57:35;;;;;;;11.43;3.30;;;;;;;;;;5224992;28;20029;-73
2022/06/28 06:00:07;;;;;;;10.10;3.07;;;;;;;;;;5223757;28;20491;-73
2022/06/28 06:02:39;;;;;;;9.40;2.90;;;;;;;;;;5211605;28;20030;-72
2022/06/28 06:05:11;;;;;;;12.60;2.73;;;;;;;;;;5206790;28;20050;-73
2022/06/28 06:07:42;;;;;;;12.73;3.57;;;;;;;;;;5209945;28;20028;-73
2022/06/28 06:10:14;;;;;;;13.37;3.37;;;;;;;;;;5208528;28;20017;-74
2022/06/28 06:12:45;;;;;;;12.33;4.03;;;;;;;;;;5214321;28;20053;-74
2022/06/28 06:15:16;;;;;;;12.83;3.10;;;;;;;;;;5215460;28;20555;-74
2022/06/28 06:17:47;;;;;;;14.77;2.60;;;;;;;;;;5209042;28;20128;-71
2022/06/28 06:20:19;;;;;;;10.00;2.80;;;;;;;;;;5211077;28;20033;-73
2022/06/28 06:22:50;;;;;;;11.60;3.90;;;;;;;;;;5208703;28;20044;-73
2022/06/28 06:25:21;;;;;;;14.30;3.50;;;;;;;;;;5208690;28;20459;-73
2022/06/28 06:27:52;;;;;;;12.17;2.90;;;;;;;;;;5207547;28;20069;-72
2022/06/28 06:30:24;;;;;;;16.60;3.83;;;;;;;;;;5210236;28;20045;-73
2022/06/28 06:32:55;;;;;;;10.00;2.77;;;;;;;;;;5209435;28;20052;-73
2022/06/28 06:35:26;;;;;;;8.90;2.37;;;;;;;;;;5212688;28;20014;-73
2022/06/28 06:38:00;;;;;;;11.87;3.10;;;;;;;;;;5208296;28;20026;-73
2022/06/28 06:40:31;;;;;;;10.68;3.20;;;;;;;;;;5209266;28;20048;-73
2022/06/28 06:43:03;;;;;;;14.23;2.60;;;;;;;;;;5207605;28;20443;-73
2022/06/28 06:45:34;;;;;;;11.23;4.00;;;;;;;;;;5209932;28;20074;-73
2022/06/28 06:48:05;;;;;;;11.93;2.97;;;;;;;;;;5209496;28;20045;-72
2022/06/28 06:50:36;;;;;;;16.53;3.17;;;;;;;;;;5215492;28;20022;-71
2022/06/28 06:53:09;;;;;;;10.00;2.73;;;;;;;;;;5209723;28;20028;-72
2022/06/28 06:55:41;;;;;;;9.47;3.23;;;;;;;;;;5207237;28;20017;-71
2022/06/28 06:58:12;;;;;;;19.80;3.37;;;;;;;;;;5207634;28;20044;-70
2022/06/28 07:00:43;;;;;;;12.70;2.40;;;;;;;;;;5206140;28;20291;-71
2022/06/28 07:03:15;;;;;;;14.87;2.93;;;;;;;;;;5207049;28;20756;-71
2022/06/28 07:05:46;;;;;;;9.20;2.33;;;;;;;;;;5207519;28;20033;-71
2022/06/28 07:08:17;;;;;;;9.13;2.20;;;;;;;;;;5207175;28;20020;-72
2022/06/28 07:10:48;;;;;;;9.67;2.50;;;;;;;;;;5211467;28;20018;-71
2022/06/28 07:13:19;;;;;;;8.30;2.50;;;;;;;;;;5209443;28;20534;-71
2022/06/28 07:15:52;;;;;;;9.60;2.23;;;;;;;;;;5207178;28;20105;-72
2022/06/28 07:18:23;;;;;;;12.60;2.60;;;;;;;;;;5206875;28;20133;-72
2022/06/28 07:20:55;;;;;;;8.27;2.63;;;;;;;;;;5208366;28;20433;-73
2022/06/28 07:23:26;;;;;;;7.87;2.80;;;;;;;;;;5223325;28;20040;-72
2022/06/28 07:25:57;;;;;;;7.47;2.00;;;;;;;;;;5208557;28;20025;-72
2022/06/28 07:28:28;;;;;;;10.97;2.73;;;;;;;;;;5207605;28;20551;-72
2022/06/28 07:31:00;;;;;;;11.53;2.50;;;;;;;;;;5206454;28;20423;-72
2022/06/28 07:33:31;;;;;;;11.70;2.95;;;;;;;;;;5206946;28;20044;-71
2022/06/28 07:36:02;;;;;;;8.40;2.17;;;;;;;;;;5208617;28;20033;-71
2022/06/28 07:38:33;;;;;;;11.95;2.13;;;;;;;;;;5206915;28;20041;-71
2022/06/28 07:41:04;;;;;;;12.30;2.40;;;;;;;;;;5207142;28;20093;-71
2022/06/28 07:43:36;;;;;;;7.78;2.95;;;;;;;;;;5206709;28;20022;-71
2022/06/28 07:46:07;;;;;;;6.30;2.20;;;;;;;;;;5207255;28;20579;-71
2022/06/28 07:48:38;;;;;;;11.27;3.55;;;;;;;;;;5207538;28;20025;-72
2022/06/28 07:53:59;;;;;;;7.05;2.22;;;;;;;;;;5210299;28;20467;-76
2022/06/28 07:56:30;;;;;;;8.13;2.13;;;;;;;;;;5209708;28;20022;-75
2022/06/28 07:59:02;;;;;;;5.97;1.50;;;;;;;;;;5205939;28;20033;-75
2022/06/28 08:01:33;;;;;;;4.72;1.63;;;;;;;;;;5208531;28;20053;-76
2022/06/28 08:04:04;;;;;;;7.05;1.90;;;;;;;;;;5208315;28;20680;-76
2022/06/28 08:06:35;;;;;;;10.75;2.70;;;;;;;;;;5208497;28;20018;-76
2022/06/28 08:09:06;;;;;;;5.90;1.67;;;;;;;;;;5208334;28;20554;-76
2022/06/28 08:11:39;;;;;;;5.45;1.90;;;;;;;;;;5208644;28;20025;-76
2022/06/28 08:14:12;;;;;;;5.75;1.77;;;;;;;;;;5226307;28;20025;-75
2022/06/28 08:16:43;;;;;;;6.05;1.90;;;;;;;;;;5212338;28;20026;-76
2022/06/28 08:19:15;;;;;;;5.68;1.33;;;;;;;;;;5211983;28;20556;-76
2022/06/28 08:21:47;;;;;;;10.50;2.33;;;;;;;;;;5207046;28;20029;-77
2022/06/28 08:24:18;;;;;;;5.68;1.70;;;;;;;;;;5209061;28;20053;-78
2022/06/28 08:26:49;;;;;;;5.07;1.88;;;;;;;;;;5211187;28;20040;-76
2022/06/28 08:29:21;;;;;;;4.35;1.15;;;;;;;;;;5211337;28;20021;-78
2022/06/28 08:31:52;;;;;;;5.32;1.10;;;;;;;;;;5209056;28;20013;-75
2022/06/28 08:34:24;;;;;;;3.35;1.30;;;;;;;;;;5210556;28;20041;-76
2022/06/28 08:36:55;;;;;;;5.57;1.55;;;;;;;;;;5207862;28;20480;-74
2022/06/28 08:39:26;;;;;;;5.00;1.85;;;;;;;;;;5211596;28;20026;-76
2022/06/28 08:42:01;;;;;;;4.38;1.20;;;;;;;;;;5225543;28;20028;-74
2022/06/28 08:44:34;;;;;;;3.85;1.00;;;;;;;;;;5210491;28;20093;-75
2022/06/28 08:47:05;;;;;;;6.75;1.30;;;;;;;;;;5210650;28;20083;-77
2022/06/28 08:49:37;;;;;;;3.63;1.00;;;;;;;;;;5209965;28;20017;-76
2022/06/28 08:52:08;;;;;;;2.78;1.25;;;;;;;;;;5210935;28;20562;-74
2022/06/28 08:54:41;;;;;;;3.85;1.42;;;;;;;;;;5210687;28;20767;-75
2022/06/28 08:57:12;;;;;;;7.85;1.38;;;;;;;;;;5210956;28;20450;-74
2022/06/28 08:59:44;;;;;;;4.82;1.15;;;;;;;;;;5209132;28;20764;-74
2022/06/28 09:02:16;;;;;;;4.88;1.58;;;;;;;;;;5211025;28;20026;-74
2022/06/28 09:04:50;;;;;;;4.97;1.55;;;;;;;;;;5211166;28;20479;-75
2022/06/28 09:07:22;;;;;;;5.57;1.20;;;;;;;;;;5208549;28;20030;-76
2022/06/28 09:09:53;;;;;;;5.40;1.00;;;;;;;;;;5211072;28;20096;-75
2022/06/28 09:12:24;;;;;;;5.85;1.45;;;;;;;;;;5207244;28;20081;-75
2022/06/28 09:14:57;;;;;;;6.53;1.40;;;;;;;;;;5207314;28;20022;-75
2022/06/28 09:17:29;;;;;;;3.47;1.70;;;;;;;;;;5225826;28;20688;-76
2022/06/28 09:20:00;;;;;;;5.38;1.15;;;;;;;;;;5208984;28;20141;-76
2022/06/28 09:22:42;;;;;;;4.70;1.35;;;;;;;;;;5210761;28;20555;-74
2022/06/28 09:25:26;;;;;;;5.80;1.20;;;;;;;;;;5207191;28;20344;-74
2022/06/28 09:28:02;;;;;;;3.75;1.40;;;;;;;;;;5210317;28;20018;-73
2022/06/28 09:30:33;;;;;;;5.40;1.45;;;;;;;;;;5209685;28;20018;-74
2022/06/28 09:33:05;;;;;;;4.27;1.40;;;;;;;;;;5209792;28;20017;-73
2022/06/28 09:35:36;;;;;;;4.18;1.23;;;;;;;;;;5210110;28;20431;-74
2022/06/28 09:38:07;;;;;;;5.43;1.15;;;;;;;;;;5208122;28;20552;-73
2022/06/28 09:40:39;;;;;;;3.63;1.10;;;;;;;;;;5208793;28;20041;-75
2022/06/28 09:43:14;;;;;;;5.13;1.13;;;;;;;;;;5208903;28;20264;-73
2022/06/28 09:45:50;;;;;;;4.63;1.60;;;;;;;;;;5207607;28;20844;-74
2022/06/28 09:48:21;;;;;;;3.72;1.20;;;;;;;;;;5208991;28;20037;-73
2022/06/28 09:51:02;;;;;;;6.63;1.57;;;;;;;;;;5206052;28;20619;-73
2022/06/28 09:53:43;;;;;;;3.83;1.02;;;;;;;;;;5207853;28;20291;-73
2022/06/28 09:56:14;;;;;;;4.57;1.40;;;;;;;;;;5207887;28;20250;-75
2022/06/28 09:58:45;;;;;;;4.40;1.20;;;;;;;;;;5208127;28;20029;-73
2022/06/28 10:01:17;;;;;;;4.85;1.38;;;;;;;;;;5208819;28;20071;-75
2022/06/28 10:03:49;;;;;;;3.90;1.30;;;;;;;;;;5223908;28;20042;-74
2022/06/28 10:06:21;;;;;;;5.07;1.40;;;;;;;;;;5208402;28;20510;-75
2022/06/28 10:08:59;;;;;;;4.27;1.60;;;;;;;;;;5205639;28;20025;-75
2022/06/28 10:15:01;;;;;;;3.33;1.10;;;;;;;;;;5206632;28;20520;-75
2022/06/28 10:17:35;;;;;;;9.02;2.17;;;;;;;;;;5209043;28;20038;-75
2022/06/28 10:20:14;;;;;;;4.88;1.00;;;;;;;;;;5203042;28;20038;-75
2022/06/28 10:22:45;;;;;;;5.15;1.75;;;;;;;;;;5209091;28;20034;-73
2022/06/28 10:25:18;;;;;;;3.55;1.30;;;;;;;;;;5206986;28;20073;-74
2022/06/28 10:27:50;;;;;;;2.80;1.17;;;;;;;;;;5208826;28;20046;-75
2022/06/28 10:30:23;;;;;;;3.90;1.40;;;;;;;;;;5207782;28;20096;-74
2022/06/28 10:33:13;;;;;;;5.53;1.52;;;;;;;;;;5208137;28;20022;-73
2022/06/28 10:35:53;;;;;;;4.35;1.65;;;;;;;;;;5211145;28;20028;-74
2022/06/28 10:38:24;;;;;;;6.38;1.50;;;;;;;;;;5208392;28;20029;-73
2022/06/28 10:41:09;;;;;;;5.20;1.30;;;;;;;;;;5208700;28;20018;-74
2022/06/28 10:43:45;;;;;;;4.22;1.23;;;;;;;;;;5207635;28;20032;-74
2022/06/28 10:46:16;;;;;;;5.30;1.40;;;;;;;;;;5208838;28;20034;-75
2022/06/28 10:48:47;;;;;;;3.15;1.50;;;;;;;;;;5208388;28;20465;-75
2022/06/28 10:51:19;;;;;;;4.10;1.33;;;;;;;;;;5208504;28;20025;-75
2022/06/28 10:54:00;;;;;;;3.37;1.17;;;;;;;;;;5208155;28;20056;-75
2022/06/28 10:56:35;;;;;;;2.58;0.90;;;;;;;;;;5207599;28;20312;-74
2022/06/28 10:59:13;;;;;;;6.00;2.30;;;;;;;;;;5221711;28;20026;-74
2022/06/28 11:01:51;;;;;;;7.28;1.25;;;;;;;;;;5208015;28;20025;-74
2022/06/28 11:04:23;;;;;;;5.05;1.20;;;;;;;;;;5208244;28;20054;-74
2022/06/28 11:06:57;;;;;;;3.95;1.10;;;;;;;;;;5207588;28;20021;-74
2022/06/28 11:09:50;;;;;;;2.78;0.82;;;;;;;;;;5208069;28;20018;-75
2022/06/28 11:12:37;;;;;;;3.67;0.70;;;;;;;;;;5208425;28;20030;-75
2022/06/28 11:15:08;;;;;;;4.82;0.85;;;;;;;;;;5222948;28;20026;-74
2022/06/28 11:17:44;;;;;;;4.75;1.63;;;;;;;;;;5223871;28;20057;-75
2022/06/28 11:20:33;;;;;;;3.33;1.17;;;;;;;;;;5207756;28;20030;-74
2022/06/28 11:23:05;;;;;;;6.68;1.33;;;;;;;;;;5221668;28;20022;-74
2022/06/28 11:28:26;;;;;;;3.42;0.90;;;;;;;;;;5207478;28;20030;-73
2022/06/28 11:30:57;;;;;;;6.63;1.10;;;;;;;;;;5207500;28;20014;-73
2022/06/28 11:33:32;;;;;;;6.55;0.98;;;;;;;;;;5207948;28;20269;-76
2022/06/28 11:36:03;;;;;;;6.38;0.90;;;;;;;;;;5207638;28;20036;-74
2022/06/28 11:38:34;;;;;;;2.88;0.98;;;;;;;;;;5208108;28;20473;-75
2022/06/28 11:41:06;;;;;;;4.30;0.88;;;;;;;;;;5207416;28;20105;-75
2022/06/28 11:43:37;;;;;;;4.57;1.37;;;;;;;;;;5222446;28;20046;-75
2022/06/28 11:46:08;;;;;;;7.78;1.13;;;;;;;;;;5207621;28;20769;-75
2022/06/28 11:48:40;;;;;;;3.38;0.82;;;;;;;;;;5211228;28;20851;-75
2022/06/28 11:51:11;;;;;;;4.70;1.00;;;;;;;;;;5211024;28;20045;-74
2022/06/28 11:53:44;;;;;;;2.95;1.00;;;;;;;;;;5211948;28;20021;-73
2022/06/28 11:56:15;;;;;;;7.78;2.00;;;;;;;;;;5211827;28;20032;-74
2022/06/28 11:58:46;;;;;;;5.07;1.38;;;;;;;;;;5210784;28;20034;-74
2022/06/28 12:01:18;;;;;;;3.92;1.20;;;;;;;;;;5211256;28;20055;-74
2022/06/28 12:03:49;;;;;;;4.80;1.10;;;;;;;;;;5211485;28;20083;-74
2022/06/28 12:06:28;;;;;;;6.18;1.23;;;;;;;;;;5226739;28;20053;-74
2022/06/28 12:09:03;;;;;;;4.70;1.50;;;;;;;;;;5211658;28;20287;-75
2022/06/28 12:11:36;;;;;;;2.90;1.10;;;;;;;;;;5211529;28;20041;-74
2022/06/28 12:14:08;;;;;;;5.47;1.40;;;;;;;;;;5209294;28;20083;-74
2022/06/28 12:16:43;;;;;;;4.15;1.02;;;;;;;;;;5226616;28;20034;-73
2022/06/28 12:19:18;;;;;;;4.65;1.00;;;;;;;;;;5211349;28;20500;-74
2022/06/28 12:22:08;;;;;;;3.72;0.95;;;;;;;;;;5211087;28;20431;-74
2022/06/28 12:24:44;;;;;;;3.20;0.95;;;;;;;;;;5211478;28;20021;-73
2022/06/28 12:27:16;;;;;;;4.25;1.52;;;;;;;;;;5211338;28;20080;-74
2022/06/28 12:29:48;;;;;;;5.70;1.67;;;;;;;;;;5210323;28;20183;-74
2022/06/28 12:32:20;;;;;;;3.22;1.30;;;;;;;;;;5209493;28;20355;-75
2022/06/28 12:34:58;;;;;;;5.35;1.20;;;;;;;;;;5211253;28;20022;-74
2022/06/28 12:37:30;;;;;;;3.00;0.82;;;;;;;;;;5211110;28;20084;-74
2022/06/28 12:40:03;;;;;;;4.20;1.23;;;;;;;;;;5198807;28;20062;-74
2022/06/28 12:42:35;;;;;;;3.13;1.05;;;;;;;;;;5210846;28;20018;-75
2022/06/28 12:45:06;;;;;;;7.93;1.50;;;;;;;;;;5209841;28;20026;-75
2022/06/28 12:47:39;;;;;;;6.85;1.00;;;;;;;;;;5211727;28;20026;-75
2022/06/28 12:50:13;;;;;;;4.68;1.30;;;;;;;;;;5209932;28;20044;-74
2022/06/28 12:52:45;;;;;;;4.35;1.35;;;;;;;;;;5211100;28;20499;-74
2022/06/28 12:55:16;;;;;;;2.45;1.10;;;;;;;;;;5210530;28;20030;-75
2022/06/28 12:57:48;;;;;;;5.70;1.30;;;;;;;;;;5210465;28;20480;-74
2022/06/28 13:00:20;;;;;;;2.97;0.98;;;;;;;;;;5208228;28;20030;-75
2022/06/28 13:02:51;;;;;;;4.07;0.90;;;;;;;;;;5210638;28;20032;-75
2022/06/28 13:05:24;;;;;;;3.78;0.95;;;;;;;;;;5210033;28;20050;-74
2022/06/28 13:07:56;;;;;;;3.70;0.98;;;;;;;;;;5209933;28;20084;-74
2022/06/28 13:10:27;;;;;;;3.50;1.50;;;;;;;;;;5209228;28;20024;-74
2022/06/28 13:12:58;;;;;;;3.67;1.08;;;;;;;;;;5210327;28;20030;-75
2022/06/28 13:15:30;;;;;;;2.58;0.85;;;;;;;;;;5209434;28;20269;-73
2022/06/28 13:18:01;;;;;;;4.35;0.90;;;;;;;;;;5210383;28;20036;-74
2022/06/28 13:20:32;;;;;;;3.05;1.00;;;;;;;;;;5209913;28;20018;-74
2022/06/28 13:23:03;;;;;;;6.65;1.23;;;;;;;;;;5210176;28;20476;-75
2022/06/28 13:25:36;;;;;;;3.50;1.02;;;;;;;;;;5210081;28;20125;-73
2022/06/28 13:28:08;;;;;;;4.70;0.98;;;;;;;;;;5210789;28;20670;-74
2022/06/28 13:30:41;;;;;;;3.65;1.05;;;;;;;;;;5211298;28;20052;-75
2022/06/28 13:33:13;;;;;;;6.18;1.33;;;;;;;;;;5194831;28;20057;-78
2022/06/28 13:35:44;;;;;;;3.63;1.13;;;;;;;;;;5208404;28;20655;-81
2022/06/28 13:38:15;;;;;;;4.60;0.95;;;;;;;;;;5211393;28;20117;-80
2022/06/28 13:40:47;;;;;;;4.22;1.08;;;;;;;;;;5204774;28;20449;-73
2022/06/28 13:43:34;;;;;;;4.95;1.35;;;;;;;;;;5198737;28;20084;-73
2022/06/28 13:46:06;;;;;;;5.40;1.38;;;;;;;;;;5200886;28;20022;-75
2022/06/28 13:48:40;;;;;;;7.72;1.58;;;;;;;;;;5197408;28;20123;-76
2022/06/28 13:51:12;;;;;;;3.92;1.10;;;;;;;;;;5199579;28;20030;-78
2022/06/28 13:53:43;;;;;;;3.58;1.13;;;;;;;;;;5197986;28;20025;-78
2022/06/28 13:56:15;;;;;;;4.68;1.40;;;;;;;;;;5196847;28;20079;-74
2022/06/28 13:58:46;;;;;;;3.80;1.23;;;;;;;;;;5197706;28;20037;-80
2022/06/28 14:01:17;;;;;;;3.67;1.38;;;;;;;;;;5197026;28;20026;-76
2022/06/28 14:03:48;;;;;;;4.75;0.90;;;;;;;;;;5198870;28;20053;-77
2022/06/28 14:06:20;;;;;;;4.57;1.20;;;;;;;;;;5195584;28;20113;-76
2022/06/28 14:08:52;;;;;;;4.25;1.02;;;;;;;;;;5196500;28;20040;-78
2022/06/28 14:11:23;;;;;;;3.80;2.00;;;;;;;;;;5197138;28;20392;-77
2022/06/28 14:13:55;;;;;;;4.38;1.00;;;;;;;;;;5198539;28;20062;-78
2022/06/28 14:16:27;;;;;;;7.78;1.20;;;;;;;;;;5196922;28;20034;-81
2022/06/28 14:18:58;;;;;;;4.03;0.98;;;;;;;;;;5203153;28;20026;-71
2022/06/28 14:21:30;;;;;;;5.32;1.26;;;;;;;;;;5207482;28;20065;-75
2022/06/28 14:24:01;;;;;;;13.27;1.20;;;;;;;;;;5205854;28;20056;-74
2022/06/28 14:26:33;;;;;;;4.25;1.50;;;;;;;;;;5214013;28;20025;-75
2022/06/28 14:29:04;;;;;;;4.53;1.73;;;;;;;;;;5199661;28;20025;-75
2022/06/28 14:31:36;;;;;;;4.13;1.30;;;;;;;;;;5205659;28;20033;-75
2022/06/28 14:34:08;;;;;;;3.03;1.17;;;;;;;;;;5200200;28;20066;-72
2022/06/28 14:36:40;;;;;;;4.40;1.58;;;;;;;;;;5211624;28;20029;-72
2022/06/28 14:39:14;;;;;;;4.82;1.23;;;;;;;;;;5220851;28;20052;-75
2022/06/28 14:41:45;;;;;;;3.83;1.20;;;;;;;;;;5218413;28;20263;-74
2022/06/28 14:44:17;;;;;;;4.72;1.27;;;;;;;;;;5205447;28;20060;-74
2022/06/28 14:46:48;;;;;;;7.15;1.15;;;;;;;;;;5207102;28;20520;-74
2022/06/28 14:49:19;;;;;;;4.80;1.20;;;;;;;;;;5206258;28;20844;-73
2022/06/28 14:51:50;;;;;;;3.50;1.17;;;;;;;;;;5221344;28;20081;-73
2022/06/28 14:54:22;;;;;;;8.07;1.95;;;;;;;;;;5204616;28;20480;-76
2022/06/28 14:56:54;;;;;;;2.47;0.80;;;;;;;;;;5207792;28;20036;-76
2022/06/28 14:59:25;;;;;;;2.53;0.93;;;;;;;;;;5206482;28;20537;-76
2022/06/28 15:01:56;;;;;;;7.13;1.70;;;;;;;;;;5207190;28;20010;-75
2022/06/28 15:04:28;;;;;;;4.97;1.00;;;;;;;;;;5203604;28;20056;-76
2022/06/28 15:06:59;;;;;;;3.65;0.95;;;;;;;;;;5207321;28;20393;-76
2022/06/28 15:09:30;;;;;;;2.45;0.90;;;;;;;;;;5206806;28;20029;-76
2022/06/28 15:12:01;;;;;;;3.53;1.30;;;;;;;;;;5205283;28;20014;-77
2022/06/28 15:14:33;;;;;;;4.57;1.33;;;;;;;;;;5205447;28;20018;-73
2022/06/28 15:17:04;;;;;;;5.43;1.10;;;;;;;;;;5206435;28;20025;-74
2022/06/28 15:19:35;;;;;;;3.80;0.98;;;;;;;;;;5206012;28;20034;-74
2022/06/28 15:30:54;;;;;;;4.75;1.20;;;;;;;;;;5212503;28;20847;-74
2022/06/28 15:33:27;;;;;;;3.05;1.27;;;;;;;;;;5211677;28;20036;-74